Time;durP1;ratioP1;P1;durP2;ratioP2;P2;SDS_P1;SDS_P2;PMS_P1;PMS_P2;Temp;Humidity;BMP_temperature;BMP_pressure;BME280_temperature;BME280_humidity;BME280_pressure;Samples;Min_cycle;Max_cycle;Signal;HPM_P1;HPM_P2
2022/06/27 00:01:26;;;;;;;12.20;10.90;;;19.10;85.20;;;;;;5077635;28;20492;-52
2022/06/27 00:03:53;;;;;;;15.23;10.83;;;19.10;83.30;;;;;;5083868;28;21040;-52
2022/06/27 00:06:20;;;;;;;18.40;10.20;;;19.10;84.10;;;;;;5084970;28;20486;-52
2022/06/27 00:08:48;;;;;;;28.23;12.23;;;19.20;81.80;;;;;;5082994;28;20957;-52
2022/06/27 00:11:14;;;;;;;10.80;9.70;;;19.10;82.80;;;;;;5087196;28;20455;-52
2022/06/27 00:13:43;;;;;;;17.97;11.40;;;19.10;81.10;;;;;;5088598;28;20513;-53
2022/06/27 00:16:10;;;;;;;13.40;11.60;;;19.10;80.70;;;;;;5080566;28;20600;-52
2022/06/27 00:18:36;;;;;;;10.70;9.80;;;19.10;82.80;;;;;;5089195;28;20545;-53
2022/06/27 00:21:03;;;;;;;12.23;11.07;;;19.10;82.30;;;;;;5088528;28;20516;-52
2022/06/27 00:23:30;;;;;;;12.60;11.40;;;19.10;82.00;;;;;;5089904;28;20493;-51
2022/06/27 00:25:57;;;;;;;12.83;10.70;;;19.10;81.10;;;;;;5076877;28;20533;-52
2022/06/27 00:28:23;;;;;;;17.83;11.47;;;19.00;82.80;;;;;;5084879;28;20472;-53
2022/06/27 00:30:51;;;;;;;27.50;13.70;;;19.00;85.50;;;;;;5084000;28;20456;-53
2022/06/27 00:33:18;;;;;;;16.23;11.20;;;19.00;84.10;;;;;;5086895;28;20461;-52
2022/06/27 00:35:45;;;;;;;14.93;11.70;;;19.00;85.20;;;;;;5084125;28;20511;-52
2022/06/27 00:38:11;;;;;;;12.80;10.73;;;19.00;82.00;;;;;;5091132;28;20506;-51
2022/06/27 00:40:38;;;;;;;12.97;10.43;;;19.00;82.10;;;;;;5088126;28;20487;-53
2022/06/27 00:43:05;;;;;;;11.70;10.70;;;18.90;84.70;;;;;;5090483;28;20911;-52
2022/06/27 00:45:31;;;;;;;11.57;10.50;;;18.90;82.60;;;;;;5087408;28;20461;-53
2022/06/27 00:47:59;;;;;;;13.23;12.07;;;18.90;81.30;;;;;;5086019;28;20541;-52
2022/06/27 00:50:26;;;;;;;11.50;10.50;;;18.90;82.50;;;;;;5091463;28;20505;-51
2022/06/27 00:52:53;;;;;;;11.90;10.90;;;18.90;82.20;;;;;;5079880;28;20524;-53
2022/06/27 00:55:19;;;;;;;17.10;10.50;;;18.90;80.90;;;;;;5079238;28;20581;-52
2022/06/27 00:57:46;;;;;;;10.83;9.93;;;18.80;85.90;;;;;;5088163;28;20486;-53
2022/06/27 01:00:14;;;;;;;13.60;12.27;;;18.80;84.70;;;;;;5088649;28;20487;-53
2022/06/27 01:02:41;;;;;;;13.20;10.80;;;18.80;83.60;;;;;;5086869;28;20509;-52
2022/06/27 01:05:12;;;;;;;12.83;11.67;;;18.80;84.40;;;;;;5084406;28;20506;-52
2022/06/27 01:07:39;;;;;;;13.17;10.80;;;18.80;84.50;;;;;;5091037;28;20484;-51
2022/06/27 01:10:07;;;;;;;13.17;10.73;;;18.70;85.70;;;;;;5086764;28;20461;-51
2022/06/27 01:12:34;;;;;;;12.50;11.27;;;18.70;84.10;;;;;;5080138;28;20816;-52
2022/06/27 01:15:01;;;;;;;11.60;10.60;;;18.70;85.90;;;;;;5087036;28;20560;-52
2022/06/27 01:17:28;;;;;;;12.40;11.40;;;18.70;87.50;;;;;;5085213;28;20480;-51
2022/06/27 01:19:55;;;;;;;15.63;10.87;;;18.60;89.50;;;;;;5082143;28;20459;-52
2022/06/27 01:22:23;;;;;;;20.33;11.10;;;18.60;87.50;;;;;;5070634;28;20554;-53
2022/06/27 01:24:49;;;;;;;14.20;11.00;;;18.60;87.40;;;;;;5083055;28;20456;-52
2022/06/27 01:27:16;;;;;;;15.47;11.60;;;18.60;86.80;;;;;;5086593;28;21247;-53
2022/06/27 01:29:43;;;;;;;14.83;11.00;;;18.60;87.30;;;;;;5078586;28;20509;-52
2022/06/27 01:32:09;;;;;;;11.93;10.83;;;18.60;86.20;;;;;;5084182;28;20969;-52
2022/06/27 01:34:36;;;;;;;12.37;11.20;;;18.60;87.10;;;;;;5083169;28;20548;-52
2022/06/27 01:37:04;;;;;;;12.50;11.27;;;18.60;86.10;;;;;;5087655;28;20519;-52
2022/06/27 01:39:32;;;;;;;12.83;10.73;;;18.60;87.90;;;;;;5087850;28;20468;-54
2022/06/27 01:42:01;;;;;;;12.00;10.73;;;18.50;88.70;;;;;;5078484;28;20465;-53
2022/06/27 01:44:29;;;;;;;14.17;11.30;;;18.50;87.90;;;;;;5082969;28;20463;-53
2022/06/27 01:47:01;;;;;;;13.37;12.27;;;18.50;88.10;;;;;;5087958;28;20835;-53
2022/06/27 01:49:29;;;;;;;13.23;11.90;;;18.50;87.70;;;;;;5085796;28;20512;-52
2022/06/27 01:51:57;;;;;;;11.90;10.90;;;18.40;88.80;;;;;;5079055;28;20460;-52
2022/06/27 01:54:25;;;;;;;12.70;11.40;;;18.50;88.50;;;;;;5077254;28;20545;-52
2022/06/27 01:56:54;;;;;;;13.83;10.47;;;18.40;87.80;;;;;;5081308;28;20545;-53
2022/06/27 01:59:22;;;;;;;12.50;11.50;;;18.40;90.90;;;;;;5080816;28;20890;-52
2022/06/27 02:01:50;;;;;;;13.60;11.63;;;18.40;90.80;;;;;;5079223;28;21012;-53
2022/06/27 02:04:17;;;;;;;23.53;11.00;;;18.40;90.20;;;;;;5081194;28;20465;-52
2022/06/27 02:06:45;;;;;;;13.80;12.27;;;18.30;92.20;;;;;;5084032;28;20472;-52
2022/06/27 02:09:15;;;;;;;12.20;11.10;;;18.30;93.30;;;;;;5081952;28;20974;-52
2022/06/27 02:11:46;;;;;;;13.50;12.30;;;18.30;93.40;;;;;;5086055;28;20463;-52
2022/06/27 02:14:14;;;;;;;13.33;12.17;;;18.30;95.10;;;;;;5087202;28;20456;-52
2022/06/27 02:16:41;;;;;;;18.00;12.30;;;18.30;96.90;;;;;;5081133;28;20492;-52
2022/06/27 02:19:10;;;;;;;11.77;10.77;;;18.30;99.50;;;;;;5081599;28;20461;-52
2022/06/27 02:21:36;;;;;;;12.83;11.50;;;18.20;99.50;;;;;;5085621;28;20463;-53
2022/06/27 02:24:03;;;;;;;14.00;12.17;;;18.20;97.80;;;;;;5082074;28;20533;-53
2022/06/27 02:26:31;;;;;;;11.60;10.50;;;18.20;97.50;;;;;;5083523;28;20464;-52
2022/06/27 02:28:59;;;;;;;12.70;11.40;;;18.20;98.70;;;;;;5088379;28;20505;-53
2022/06/27 02:31:27;;;;;;;19.70;10.73;;;18.20;99.90;;;;;;5086494;28;20456;-51
2022/06/27 02:33:55;;;;;;;12.77;11.57;;;18.20;99.90;;;;;;5086615;28;20459;-52
2022/06/27 02:36:25;;;;;;;12.47;11.30;;;18.10;99.90;;;;;;5085073;28;20543;-51
2022/06/27 02:38:55;;;;;;;17.00;12.33;;;18.10;99.90;;;;;;5072470;28;20526;-51
2022/06/27 02:41:23;;;;;;;12.40;11.40;;;18.10;99.90;;;;;;5084411;28;20510;-52
2022/06/27 02:43:53;;;;;;;17.67;12.40;;;18.10;99.90;;;;;;5087084;28;20460;-52
2022/06/27 02:46:20;;;;;;;12.70;11.47;;;18.10;99.90;;;;;;5083039;28;20565;-51
2022/06/27 02:48:50;;;;;;;12.33;11.03;;;18.10;99.90;;;;;;5090619;28;20467;-52
2022/06/27 02:51:20;;;;;;;13.80;12.50;;;18.10;99.90;;;;;;5084345;28;20514;-53
2022/06/27 02:53:58;;;;;;;17.53;11.37;;;18.10;99.90;;;;;;5086279;28;20552;-52
2022/06/27 02:56:28;;;;;;;12.03;10.53;;;18.10;99.90;;;;;;5081336;28;20533;-52
2022/06/27 02:59:02;;;;;;;14.63;11.13;;;18.10;99.90;;;;;;5075544;28;20457;-52
2022/06/27 03:01:31;;;;;;;10.40;9.60;;;18.10;99.90;;;;;;5083453;28;20459;-52
2022/06/27 03:04:00;;;;;;;11.37;10.17;;;18.20;99.90;;;;;;5088453;28;20806;-52
2022/06/27 03:06:28;;;;;;;20.60;10.50;;;18.20;99.90;;;;;;5079286;28;20522;-53
2022/06/27 03:08:54;;;;;;;11.70;10.60;;;18.20;99.90;;;;;;5076103;28;20522;-52
2022/06/27 03:11:23;;;;;;;11.70;10.40;;;18.30;99.90;;;;;;5074858;28;20512;-52
2022/06/27 03:13:50;;;;;;;10.63;9.30;;;18.30;99.90;;;;;;5074405;28;20492;-53
2022/06/27 03:16:19;;;;;;;11.67;10.47;;;18.40;99.90;;;;;;5078630;28;20479;-51
2022/06/27 03:18:47;;;;;;;12.27;11.03;;;18.40;99.90;;;;;;5077244;28;20478;-53
2022/06/27 03:21:17;;;;;;;11.20;10.10;;;18.50;99.90;;;;;;5075044;28;20541;-53
2022/06/27 03:23:45;;;;;;;10.27;9.43;;;18.50;99.90;;;;;;5072764;28;20465;-51
2022/06/27 03:26:13;;;;;;;26.87;10.27;;;18.50;99.90;;;;;;5074717;28;20491;-51
2022/06/27 03:28:39;;;;;;;11.70;10.67;;;18.50;99.90;;;;;;5076129;28;20452;-53
2022/06/27 03:31:06;;;;;;;14.40;10.17;;;18.50;99.90;;;;;;5077846;28;20483;-53
2022/06/27 03:33:33;;;;;;;11.37;10.20;;;18.60;99.90;;;;;;5076450;28;20572;-53
2022/06/27 03:35:59;;;;;;;12.47;10.40;;;18.60;99.90;;;;;;5082683;28;20507;-53
2022/06/27 03:38:28;;;;;;;14.77;10.93;;;18.60;99.90;;;;;;5084053;28;20978;-52
2022/06/27 03:40:54;;;;;;;11.73;10.73;;;18.60;99.90;;;;;;5081167;28;20459;-53
2022/06/27 03:43:21;;;;;;;12.47;11.10;;;18.70;99.90;;;;;;5078792;28;20967;-53
2022/06/27 03:45:48;;;;;;;12.73;11.07;;;18.80;99.90;;;;;;5078602;28;21434;-53
2022/06/27 03:50:55;;;;;;;15.80;10.90;;;18.90;99.90;;;;;;5078388;28;20459;-52
2022/06/27 03:53:21;;;;;;;11.80;10.70;;;19.00;99.90;;;;;;5084867;28;20488;-51
2022/06/27 03:55:49;;;;;;;12.50;11.50;;;19.00;99.90;;;;;;5079349;28;20531;-51
2022/06/27 03:58:16;;;;;;;18.90;10.80;;;19.10;99.90;;;;;;5080005;28;20970;-54
2022/06/27 04:00:43;;;;;;;12.00;10.40;;;19.10;99.90;;;;;;5078642;28;21500;-52
2022/06/27 04:03:09;;;;;;;12.80;11.50;;;19.10;99.90;;;;;;5082727;28;20517;-53
2022/06/27 04:05:36;;;;;;;12.83;11.60;;;19.20;99.90;;;;;;5077934;28;20812;-52
2022/06/27 04:08:03;;;;;;;12.67;11.50;;;19.10;99.90;;;;;;5078971;28;20459;-51
2022/06/27 04:10:30;;;;;;;11.97;10.97;;;19.20;99.90;;;;;;5081043;28;20495;-52
2022/06/27 04:12:58;;;;;;;14.30;11.60;;;19.20;99.90;;;;;;5080066;28;20546;-53
2022/06/27 04:15:25;;;;;;;11.33;10.40;;;19.30;99.90;;;;;;5084266;28;20475;-52
2022/06/27 04:17:51;;;;;;;12.37;11.37;;;19.30;99.90;;;;;;5080000;28;20582;-53
2022/06/27 04:20:18;;;;;;;12.23;10.97;;;19.30;99.90;;;;;;5084402;28;20489;-53
2022/06/27 04:22:45;;;;;;;15.50;11.70;;;19.30;99.90;;;;;;5084380;28;20484;-51
2022/06/27 04:25:11;;;;;;;14.93;11.93;;;19.40;99.90;;;;;;5086583;28;20680;-53
2022/06/27 04:27:39;;;;;;;18.00;11.83;;;19.40;99.90;;;;;;5087098;28;20478;-52
2022/06/27 04:30:15;;;;;;;19.53;11.93;;;19.40;99.90;;;;;;5085060;28;20957;-52
2022/06/27 04:32:43;;;;;;;16.90;11.60;;;19.50;99.90;;;;;;5085192;28;20523;-53
2022/06/27 04:35:10;;;;;;;13.93;12.13;;;19.50;99.90;;;;;;5084616;28;20448;-52
2022/06/27 04:37:40;;;;;;;12.20;10.97;;;19.60;99.90;;;;;;5085435;28;20488;-53
2022/06/27 04:40:08;;;;;;;12.53;11.27;;;19.60;99.90;;;;;;5085019;28;20459;-54
2022/06/27 04:42:34;;;;;;;13.10;11.87;;;19.70;99.90;;;;;;5078955;28;20468;-53
2022/06/27 04:45:01;;;;;;;18.80;11.07;;;19.70;99.90;;;;;;5078622;28;20879;-52
2022/06/27 04:47:29;;;;;;;12.67;11.50;;;19.80;99.90;;;;;;5081802;28;20472;-52
2022/06/27 04:49:56;;;;;;;11.90;10.90;;;19.80;99.90;;;;;;5080027;28;20479;-52
2022/06/27 04:52:22;;;;;;;21.43;11.27;;;19.90;99.90;;;;;;5084652;28;20468;-53
2022/06/27 04:54:50;;;;;;;13.37;12.37;;;20.00;99.90;;;;;;5087778;28;20452;-52
2022/06/27 04:57:16;;;;;;;17.43;12.27;;;20.10;99.90;;;;;;5087285;28;21016;-53
2022/06/27 04:59:43;;;;;;;14.13;11.47;;;20.10;99.90;;;;;;5085630;28;20513;-52
2022/06/27 05:02:10;;;;;;;21.40;11.97;;;20.20;99.90;;;;;;5085899;28;20457;-52
2022/06/27 05:04:38;;;;;;;13.87;12.47;;;20.30;99.90;;;;;;5087398;28;20529;-52
2022/06/27 05:07:05;;;;;;;12.57;11.43;;;20.30;24.20;;;;;;5086788;28;20559;-53
2022/06/27 05:09:31;;;;;;;13.83;12.13;;;20.40;29.00;;;;;;5088627;28;21011;-51
2022/06/27 05:11:58;;;;;;;13.10;11.90;;;20.50;34.00;;;;;;5084999;28;20463;-52
2022/06/27 05:14:25;;;;;;;17.23;12.00;;;20.50;41.10;;;;;;5087845;28;20510;-52
2022/06/27 05:16:51;;;;;;;11.53;10.43;;;20.60;46.60;;;;;;5085164;28;21025;-52
2022/06/27 05:19:18;;;;;;;13.63;12.03;;;20.70;50.20;;;;;;5085401;28;20460;-52
2022/06/27 05:21:46;;;;;;;11.73;10.83;;;20.70;54.90;;;;;;5084214;28;20899;-53
2022/06/27 05:24:13;;;;;;;16.43;11.53;;;20.80;57.70;;;;;;5079655;28;20540;-52
2022/06/27 05:26:39;;;;;;;12.93;11.80;;;20.90;62.70;;;;;;5075962;28;20983;-53
2022/06/27 05:29:06;;;;;;;12.57;11.27;;;20.90;78.70;;;;;;5080705;28;20471;-53
2022/06/27 05:31:33;;;;;;;15.63;11.77;;;21.00;91.70;;;;;;5082819;28;20813;-53
2022/06/27 05:34:00;;;;;;;12.50;11.40;;;21.10;97.50;;;;;;5082804;28;20452;-52
2022/06/27 05:36:27;;;;;;;13.10;11.40;;;21.20;98.10;;;;;;5082933;28;21059;-53
2022/06/27 05:38:55;;;;;;;13.13;11.53;;;21.20;99.90;;;;;;5076499;28;20488;-52
2022/06/27 05:41:22;;;;;;;12.60;11.60;;;21.30;99.90;;;;;;5081132;28;20452;-52
2022/06/27 05:43:49;;;;;;;12.33;10.97;;;21.40;99.90;;;;;;5080280;28;20981;-52
2022/06/27 05:46:16;;;;;;;17.20;11.53;;;21.50;99.90;;;;;;5081559;28;20569;-52
2022/06/27 05:48:42;;;;;;;22.43;11.60;;;21.60;99.90;;;;;;5086109;28;20491;-53
2022/06/27 05:51:09;;;;;;;24.77;13.20;;;21.80;99.90;;;;;;5079265;28;20472;-52
2022/06/27 05:53:38;;;;;;;21.43;11.60;;;21.90;99.90;;;;;;5080871;28;20479;-51
2022/06/27 05:56:06;;;;;;;26.03;10.23;;;22.00;99.90;;;;;;5083046;28;20487;-53
2022/06/27 05:58:33;;;;;;;24.83;11.13;;;22.20;99.90;;;;;;5083568;28;20539;-52
2022/06/27 06:01:01;;;;;;;13.90;10.87;;;22.20;99.90;;;;;;5083591;28;20488;-51
2022/06/27 06:03:28;;;;;;;26.00;10.80;;;22.40;99.90;;;;;;5088390;28;20470;-52
2022/06/27 06:05:56;;;;;;;12.27;10.87;;;22.50;34.30;;;;;;5081524;28;20548;-53
2022/06/27 06:08:23;;;;;;;15.63;10.50;;;22.60;41.80;;;;;;5081402;28;20549;-52
2022/06/27 06:10:50;;;;;;;12.70;9.63;;;22.70;51.30;;;;;;5082152;28;20461;-53
2022/06/27 06:13:18;;;;;;;12.77;10.90;;;22.80;77.70;;;;;;5085829;28;20595;-52
2022/06/27 06:15:45;;;;;;;12.33;10.43;;;22.80;62.90;;;;;;5084096;28;21004;-52
2022/06/27 06:18:12;;;;;;;16.07;10.20;;;22.90;63.50;;;;;;5083012;28;20503;-52
2022/06/27 06:20:39;;;;;;;14.33;10.33;;;22.90;75.30;;;;;;5087105;28;20460;-53
2022/06/27 06:23:06;;;;;;;11.80;10.70;;;23.00;99.90;;;;;;5083378;28;20459;-52
2022/06/27 06:25:33;;;;;;;10.47;9.43;;;23.10;99.90;;;;;;5085217;28;21134;-52
2022/06/27 06:28:01;;;;;;;10.97;10.07;;;23.30;99.90;;;;;;5079228;28;20458;-51
2022/06/27 06:30:30;;;;;;;16.37;9.50;;;23.50;99.90;;;;;;5074128;28;20445;-52
2022/06/27 06:33:02;;;;;;;12.20;9.53;;;23.60;99.90;;;;;;5084282;28;20464;-52
2022/06/27 06:35:29;;;;;;;11.23;10.13;;;23.70;99.90;;;;;;5080402;28;20432;-52
2022/06/27 06:37:56;;;;;;;10.50;9.50;;;23.90;99.90;;;;;;5089518;28;20891;-52
2022/06/27 06:40:23;;;;;;;10.57;9.67;;;23.90;99.90;;;;;;5083267;28;20543;-52
2022/06/27 06:42:50;;;;;;;9.90;8.93;;;24.00;99.90;;;;;;5086122;28;21003;-52
2022/06/27 06:45:17;;;;;;;10.63;9.63;;;24.20;99.90;;;;;;5085000;28;20959;-51
2022/06/27 06:47:46;;;;;;;9.57;8.60;;;24.30;99.90;;;;;;5089780;28;20479;-51
2022/06/27 06:50:16;;;;;;;10.80;9.63;;;24.40;99.90;;;;;;5079967;28;20475;-52
2022/06/27 06:52:44;;;;;;;9.80;9.00;;;24.50;99.90;;;;;;5083885;28;20463;-52
2022/06/27 06:55:11;;;;;;;10.57;9.77;;;24.50;99.90;;;;;;5084339;28;20486;-51
2022/06/27 06:57:38;;;;;;;10.87;9.87;;;24.50;99.90;;;;;;5086775;28;20850;-51
2022/06/27 07:00:07;;;;;;;11.00;9.93;;;24.60;99.90;;;;;;5081760;28;20449;-51
2022/06/27 07:02:34;;;;;;;11.03;10.10;;;24.70;99.90;;;;;;5086132;28;20452;-52
2022/06/27 07:05:03;;;;;;;10.10;9.27;;;24.80;99.90;;;;;;5082005;28;20509;-51
2022/06/27 07:07:33;;;;;;;11.13;8.87;;;24.90;99.90;;;;;;5078838;28;20471;-51
2022/06/27 07:09:59;;;;;;;10.40;9.30;;;24.90;99.90;;;;;;5084874;28;20455;-52
2022/06/27 07:12:29;;;;;;;13.60;9.40;;;25.00;99.90;;;;;;5085022;28;20467;-51
2022/06/27 07:14:57;;;;;;;12.80;9.40;;;25.10;99.90;;;;;;5073309;28;20453;-51
2022/06/27 07:17:24;;;;;;;10.90;9.80;;;25.20;23.90;;;;;;5082881;28;20483;-51
2022/06/27 07:19:52;;;;;;;10.50;8.00;;;25.30;99.00;;;;;;5077463;28;20460;-52
2022/06/27 07:22:23;;;;;;;12.83;9.27;;;25.30;28.40;;;;;;5082793;28;20491;-52
2022/06/27 07:24:50;;;;;;;10.43;7.83;;;25.40;34.00;;;;;;5085861;28;20966;-51
2022/06/27 07:27:17;;;;;;;8.60;7.70;;;25.50;33.90;;;;;;5088927;28;20533;-51
2022/06/27 07:29:44;;;;;;;9.43;8.30;;;25.60;44.40;;;;;;5090314;28;20926;-51
2022/06/27 07:32:11;;;;;;;8.60;7.70;;;25.70;33.60;;;;;;5084764;28;20510;-51
2022/06/27 07:34:38;;;;;;;8.63;7.73;;;25.80;31.30;;;;;;5090449;28;20999;-52
2022/06/27 07:37:05;;;;;;;11.13;7.47;;;25.90;66.90;;;;;;5083824;28;20485;-52
2022/06/27 07:39:34;;;;;;;7.43;6.73;;;26.10;79.30;;;;;;5082874;28;20463;-51
2022/06/27 07:42:01;;;;;;;7.03;6.53;;;26.30;84.30;;;;;;5076779;28;20456;-54
2022/06/27 07:44:28;;;;;;;7.30;6.70;;;26.40;86.80;;;;;;5079848;28;20460;-53
2022/06/27 07:46:56;;;;;;;12.37;6.00;;;26.50;99.90;;;;;;5078887;28;20558;-53
2022/06/27 07:49:22;;;;;;;6.60;5.87;;;26.70;99.90;;;;;;5085510;28;20456;-51
2022/06/27 07:51:49;;;;;;;7.00;5.87;;;26.80;99.90;;;;;;5081445;28;20875;-52
2022/06/27 07:54:16;;;;;;;6.20;5.80;;;27.00;99.90;;;;;;5078092;28;20522;-52
2022/06/27 07:56:46;;;;;;;7.03;5.30;;;27.10;99.90;;;;;;5075716;28;20479;-52
2022/06/27 07:59:14;;;;;;;5.77;5.30;;;27.20;99.90;;;;;;5082874;28;20465;-53
2022/06/27 08:01:41;;;;;;;5.90;5.50;;;27.30;99.90;;;;;;5078916;28;20551;-53
2022/06/27 08:04:08;;;;;;;9.03;5.33;;;27.50;99.90;;;;;;5079301;28;20455;-52
2022/06/27 08:06:35;;;;;;;7.67;5.90;;;27.50;99.90;;;;;;5082132;28;20558;-53
2022/06/27 08:09:04;;;;;;;7.27;5.80;;;27.60;99.90;;;;;;5075837;28;20448;-53
2022/06/27 08:11:33;;;;;;;6.10;5.57;;;27.60;99.90;;;;;;5081822;28;20525;-52
2022/06/27 08:14:05;;;;;;;6.47;6.07;;;27.80;99.90;;;;;;5086210;28;20456;-52
2022/06/27 08:16:33;;;;;;;7.47;5.77;;;28.00;99.90;;;;;;5082283;28;20476;-51
2022/06/27 08:19:02;;;;;;;6.20;5.70;;;28.00;99.90;;;;;;5077580;28;20476;-52
2022/06/27 08:21:30;;;;;;;5.60;5.10;;;28.20;99.90;;;;;;5080304;28;21140;-52
2022/06/27 08:23:59;;;;;;;11.43;7.00;;;28.30;99.90;;;;;;5079639;28;20818;-52
2022/06/27 08:26:27;;;;;;;17.07;6.17;;;28.40;99.90;;;;;;5085057;28;20484;-52
2022/06/27 08:28:54;;;;;;;5.80;5.20;;;28.60;99.90;;;;;;5080871;28;20457;-51
2022/06/27 08:31:23;;;;;;;5.37;4.93;;;28.60;99.90;;;;;;5091828;28;20476;-51
2022/06/27 08:33:50;;;;;;;9.37;5.67;;;28.70;99.90;;;;;;5084720;28;20865;-53
2022/06/27 08:36:19;;;;;;;6.67;5.77;;;28.80;99.90;;;;;;5087889;28;20566;-52
2022/06/27 08:38:48;;;;;;;6.03;5.50;;;29.00;99.90;;;;;;5082248;28;20486;-51
2022/06/27 08:41:16;;;;;;;12.23;4.50;;;29.00;99.90;;;;;;5084764;28;20471;-54
2022/06/27 08:43:43;;;;;;;13.03;6.87;;;29.10;99.90;;;;;;5079479;28;20467;-52
2022/06/27 08:46:15;;;;;;;4.87;4.43;;;29.20;99.90;;;;;;5087695;28;20474;-53
2022/06/27 08:48:45;;;;;;;7.83;4.30;;;29.30;99.90;;;;;;5077406;28;20456;-53
2022/06/27 08:51:13;;;;;;;5.20;4.33;;;29.30;99.90;;;;;;5084410;28;20522;-53
2022/06/27 08:53:39;;;;;;;5.03;4.13;;;29.40;99.90;;;;;;5088703;28;20509;-53
2022/06/27 08:56:09;;;;;;;4.30;4.10;;;29.50;99.90;;;;;;5086363;28;20541;-51
2022/06/27 08:58:36;;;;;;;3.53;3.43;;;29.60;99.90;;;;;;5089810;28;20480;-52
2022/06/27 09:01:04;;;;;;;3.30;3.17;;;29.60;99.90;;;;;;5084305;28;20465;-52
2022/06/27 09:03:32;;;;;;;6.30;4.87;;;29.70;99.90;;;;;;5091272;28;20513;-53
2022/06/27 09:06:02;;;;;;;3.10;2.90;;;29.70;99.90;;;;;;5086183;28;20469;-53
2022/06/27 09:08:32;;;;;;;3.57;3.30;;;29.90;99.90;;;;;;5080303;28;20452;-52
2022/06/27 09:11:00;;;;;;;5.57;2.93;;;30.00;99.90;;;;;;5072519;28;20453;-53
2022/06/27 09:13:28;;;;;;;2.70;2.60;;;30.20;99.90;;;;;;5074433;28;20547;-53
2022/06/27 09:15:57;;;;;;;3.07;2.87;;;30.20;99.90;;;;;;5092321;28;20467;-52
2022/06/27 09:18:25;;;;;;;3.40;3.10;;;30.30;99.90;;;;;;5089143;28;21021;-54
2022/06/27 09:20:55;;;;;;;6.40;2.70;;;30.40;99.90;;;;;;5087184;28;20464;-52
2022/06/27 09:23:40;;;;;;;3.50;2.43;;;30.40;99.90;;;;;;5086653;28;20543;-54
2022/06/27 09:26:10;;;;;;;3.23;2.53;;;30.50;99.90;;;;;;5078699;28;20483;-52
2022/06/27 09:28:45;;;;;;;10.70;2.80;;;30.60;99.90;;;;;;5082920;28;20456;-52
2022/06/27 09:31:15;;;;;;;4.97;2.53;;;30.60;99.90;;;;;;5079364;28;20468;-52
2022/06/27 09:33:42;;;;;;;3.50;3.20;;;30.80;99.90;;;;;;5081835;28;20452;-54
2022/06/27 09:36:11;;;;;;;3.10;2.80;;;30.80;99.90;;;;;;5081441;28;20537;-52
2022/06/27 09:38:42;;;;;;;4.67;2.90;;;30.90;99.90;;;;;;5081245;28;20476;-52
2022/06/27 09:41:13;;;;;;;2.80;2.50;;;31.00;99.90;;;;;;5081121;28;20542;-51
2022/06/27 09:43:44;;;;;;;6.80;2.60;;;31.00;99.90;;;;;;5083019;28;20461;-53
2022/06/27 09:46:12;;;;;;;8.40;2.47;;;31.00;99.90;;;;;;5084956;28;20479;-52
2022/06/27 09:48:43;;;;;;;3.30;3.10;;;31.20;99.90;;;;;;5091367;28;20459;-52
2022/06/27 09:51:12;;;;;;;2.93;2.73;;;31.10;99.90;;;;;;5079638;28;20510;-52
2022/06/27 09:53:44;;;;;;;2.80;2.70;;;31.10;99.90;;;;;;5088003;28;20455;-52
2022/06/27 09:56:11;;;;;;;3.40;3.10;;;31.20;99.90;;;;;;5086106;28;20484;-52
2022/06/27 09:58:40;;;;;;;3.40;3.20;;;31.20;99.90;;;;;;5077986;28;20554;-52
2022/06/27 10:01:07;;;;;;;5.33;2.80;;;31.20;99.90;;;;;;5079299;28;20578;-52
2022/06/27 10:03:36;;;;;;;3.47;3.30;;;31.40;99.90;;;;;;5086419;28;20555;-53
2022/06/27 10:06:05;;;;;;;6.97;3.07;;;31.40;99.90;;;;;;5081345;28;20492;-53
2022/06/27 10:08:33;;;;;;;16.47;3.37;;;31.40;99.90;;;;;;5087154;28;20460;-53
2022/06/27 10:11:10;;;;;;;2.90;2.80;;;31.40;99.90;;;;;;5083555;28;20841;-52
2022/06/27 10:13:38;;;;;;;3.20;2.90;;;31.50;99.90;;;;;;5083815;28;20452;-52
2022/06/27 10:16:12;;;;;;;2.60;2.37;;;31.70;99.90;;;;;;5084070;28;20465;-52
2022/06/27 10:19:00;;;;;;;3.50;3.20;;;31.80;99.90;;;;;;5078001;28;21015;-53
2022/06/27 10:21:28;;;;;;;5.80;2.53;;;31.90;99.90;;;;;;5085928;28;20456;-53
2022/06/27 10:24:33;;;;;;;3.73;3.30;;;31.90;99.90;;;;;;5084427;28;20516;-53
2022/06/27 10:27:23;;;;;;;4.93;2.23;;;31.80;99.90;;;;;;5084318;28;20506;-52
2022/06/27 10:29:50;;;;;;;4.73;2.63;;;31.80;99.90;;;;;;5084342;28;20512;-51
2022/06/27 10:32:40;;;;;;;2.90;2.80;;;32.00;99.90;;;;;;5079272;28;20472;-53
2022/06/27 10:35:16;;;;;;;3.33;3.07;;;32.00;99.90;;;;;;5084338;28;20830;-53
2022/06/27 10:37:47;;;;;;;4.10;2.87;;;32.00;99.90;;;;;;5084389;28;20472;-52
2022/06/27 10:40:56;;;;;;;4.30;3.03;;;32.10;99.90;;;;;;5086116;28;20456;-52
2022/06/27 10:43:48;;;;;;;3.00;2.80;;;32.00;99.90;;;;;;5084376;28;20505;-52
2022/06/27 10:46:51;;;;;;;7.73;2.70;;;32.10;99.90;;;;;;5077987;28;20501;-53
2022/06/27 10:49:23;;;;;;;3.03;2.50;;;32.10;99.90;;;;;;5088491;28;20513;-51
2022/06/27 10:51:52;;;;;;;3.13;2.80;;;32.10;99.90;;;;;;5081597;28;20464;-52
2022/06/27 10:54:19;;;;;;;3.67;3.37;;;32.20;99.90;;;;;;5078259;28;20495;-51
2022/06/27 10:56:48;;;;;;;4.83;2.37;;;32.30;99.90;;;;;;5079219;28;21489;-51
2022/06/27 10:59:58;;;;;;;4.20;2.50;;;32.40;99.90;;;;;;5081621;28;20544;-52
2022/06/27 11:02:29;;;;;;;2.27;2.17;;;32.30;99.90;;;;;;5079889;28;20451;-53
2022/06/27 11:04:56;;;;;;;2.63;2.53;;;32.30;99.90;;;;;;5080195;28;20452;-53
2022/06/27 11:07:23;;;;;;;4.43;1.83;;;32.30;99.90;;;;;;5082522;28;21020;-53
2022/06/27 11:09:50;;;;;;;2.10;2.00;;;32.30;99.90;;;;;;5079593;28;20858;-52
2022/06/27 11:12:19;;;;;;;2.47;2.37;;;32.40;99.90;;;;;;5079559;28;20509;-53
2022/06/27 11:14:48;;;;;;;3.80;2.00;;;32.50;99.90;;;;;;5081541;28;20466;-52
2022/06/27 11:17:38;;;;;;;3.10;2.07;;;32.60;99.90;;;;;;5082002;28;20541;-52
2022/06/27 11:20:12;;;;;;;3.20;2.63;;;32.70;99.90;;;;;;5086703;28;20471;-51
2022/06/27 11:22:39;;;;;;;2.50;2.30;;;32.70;99.90;;;;;;5084764;28;20802;-52
2022/06/27 11:25:07;;;;;;;2.43;2.20;;;32.70;99.90;;;;;;5086133;28;20950;-51
2022/06/27 11:27:52;;;;;;;2.33;2.13;;;32.80;99.90;;;;;;5080685;28;20472;-52
2022/06/27 11:33:25;;;;;;;6.50;1.73;;;32.70;99.90;;;;;;5039360;28;20995;-52
2022/06/27 11:35:54;;;;;;;8.17;1.70;;;32.70;99.90;;;;;;5086907;28;21060;-51
2022/06/27 11:38:24;;;;;;;2.33;2.13;;;32.80;99.90;;;;;;5079035;28;20492;-52
2022/06/27 11:41:01;;;;;;;1.90;1.80;;;32.90;99.90;;;;;;5081272;28;20461;-53
2022/06/27 11:43:46;;;;;;;9.60;2.00;;;32.90;99.90;;;;;;5084432;28;20487;-53
2022/06/27 11:46:22;;;;;;;1.97;1.70;;;32.90;99.90;;;;;;5086479;28;20483;-53
2022/06/27 11:48:55;;;;;;;8.43;2.00;;;32.90;99.90;;;;;;5077952;28;20486;-53
2022/06/27 11:51:22;;;;;;;6.23;2.13;;;32.90;99.90;;;;;;5074402;28;20456;-53
2022/06/27 11:53:53;;;;;;;3.27;1.70;;;32.80;99.90;;;;;;5078585;28;20513;-53
2022/06/27 11:56:25;;;;;;;1.93;1.83;;;32.70;99.90;;;;;;5081532;28;20488;-52
2022/06/27 11:58:52;;;;;;;3.90;2.10;;;32.70;99.90;;;;;;5087408;28;20531;-52
2022/06/27 12:01:19;;;;;;;5.00;1.77;;;32.70;99.90;;;;;;5082784;28;21039;-54
2022/06/27 12:04:21;;;;;;;3.47;2.03;;;32.70;99.90;;;;;;5091119;28;20971;-52
2022/06/27 12:06:53;;;;;;;2.50;2.20;;;32.90;99.90;;;;;;5091728;28;20464;-51
2022/06/27 12:09:21;;;;;;;2.63;2.40;;;33.00;99.90;;;;;;5092943;28;20487;-51
2022/06/27 12:11:54;;;;;;;8.83;2.50;;;33.00;99.90;;;;;;5089073;28;20868;-52
2022/06/27 12:14:21;;;;;;;7.63;2.13;;;33.10;99.90;;;;;;5082111;28;21303;-51
2022/06/27 12:16:49;;;;;;;2.50;2.30;;;33.10;99.90;;;;;;5091215;28;20479;-52
2022/06/27 12:19:17;;;;;;;3.50;2.07;;;33.10;99.90;;;;;;5090598;28;20529;-53
2022/06/27 12:21:44;;;;;;;4.23;2.00;;;33.20;99.90;;;;;;5093627;28;20455;-52
2022/06/27 12:24:14;;;;;;;2.50;2.30;;;33.40;99.90;;;;;;5087573;28;20492;-53
2022/06/27 12:26:41;;;;;;;2.17;2.07;;;33.50;99.90;;;;;;5083637;28;20465;-52
2022/06/27 12:29:07;;;;;;;6.93;2.00;;;33.50;99.90;;;;;;5085519;28;20510;-52
2022/06/27 12:31:35;;;;;;;2.17;1.97;;;33.50;99.90;;;;;;5077765;28;20445;-53
2022/06/27 12:34:02;;;;;;;14.73;2.20;;;33.30;99.90;;;;;;5076293;28;20513;-51
2022/06/27 12:36:30;;;;;;;2.67;2.20;;;33.40;99.90;;;;;;5089084;28;20484;-52
2022/06/27 12:38:58;;;;;;;2.20;2.10;;;33.40;99.90;;;;;;5083897;28;20487;-52
2022/06/27 12:41:26;;;;;;;6.67;2.40;;;33.30;99.90;;;;;;5083780;28;20568;-52
2022/06/27 12:43:52;;;;;;;4.27;2.07;;;33.30;99.90;;;;;;5088887;28;20456;-52
2022/06/27 12:46:20;;;;;;;8.33;1.77;;;33.30;99.90;;;;;;5087947;28;20517;-52
2022/06/27 12:48:47;;;;;;;2.13;1.70;;;33.20;99.90;;;;;;5088471;28;20482;-52
2022/06/27 12:51:14;;;;;;;3.17;2.80;;;33.30;99.90;;;;;;5093005;28;20447;-52